createdAt,value
2023-03-05T00:01:51.720Z,93.30
2023-03-05T00:04:18.776Z,93.50
2023-03-05T00:06:45.812Z,93.50
2023-03-05T00:09:12.987Z,93.70
2023-03-05T00:11:40.013Z,93.90
2023-03-05T00:14:07.216Z,94.10
2023-03-05T00:17:03.901Z,94.20
2023-03-05T00:19:30.991Z,93.70
2023-03-05T00:21:57.961Z,93.80
2023-03-05T00:24:24.983Z,93.90
2023-03-05T00:26:52.057Z,93.80
2023-03-05T00:29:22.032Z,94.10
2023-03-05T00:31:49.197Z,94.50
2023-03-05T00:34:19.052Z,95.10
2023-03-05T00:36:49.397Z,95.00
2023-03-05T00:39:18.582Z,95.20
2023-03-05T00:41:45.845Z,95.30
2023-03-05T00:44:13.193Z,95.50
2023-03-05T00:46:40.623Z,95.60
2023-03-05T00:49:08.351Z,95.40
2023-03-05T00:51:35.490Z,95.40
2023-03-05T00:54:03.315Z,95.40
2023-03-05T00:56:30.385Z,95.10
2023-03-05T00:58:57.535Z,94.90
2023-03-05T01:01:24.917Z,94.70
2023-03-05T01:03:52.043Z,94.30
2023-03-05T01:06:19.499Z,94.20
2023-03-05T01:08:46.567Z,94.40
2023-03-05T01:11:14.329Z,94.80
2023-03-05T01:14:04.446Z,94.80
2023-03-05T01:16:31.541Z,94.80
2023-03-05T01:18:58.644Z,94.50
2023-03-05T01:21:25.847Z,94.40
2023-03-05T01:23:53.044Z,94.30
2023-03-05T01:26:20.108Z,94.60
2023-03-05T01:28:47.187Z,95.00
2023-03-05T01:31:14.332Z,95.20
2023-03-05T01:33:41.480Z,95.50
2023-03-05T01:36:15.975Z,95.50
2023-03-05T01:38:44.640Z,95.70
2023-03-05T01:41:13.127Z,95.50
2023-03-05T01:43:40.670Z,95.30
2023-03-05T01:46:13.517Z,95.10
2023-03-05T01:48:44.287Z,95.10
2023-03-05T01:51:11.382Z,95.30
2023-03-05T01:53:38.585Z,95.70
2023-03-05T01:56:07.285Z,95.90
2023-03-05T01:58:34.334Z,96.10
2023-03-05T02:01:02.502Z,96.20
2023-03-05T02:03:29.604Z,96.00
2023-03-05T02:05:56.644Z,96.10
2023-03-05T02:08:24.465Z,96.10
2023-03-05T02:10:55.395Z,95.90
2023-03-05T02:13:26.034Z,95.80
2023-03-05T02:15:53.734Z,95.80
2023-03-05T02:18:23.963Z,95.90
2023-03-05T02:20:56.623Z,96.00
2023-03-05T02:23:30.274Z,96.00
2023-03-05T02:25:57.325Z,95.90
2023-03-05T02:28:27.405Z,96.00
2023-03-05T02:30:54.453Z,96.10
2023-03-05T02:33:21.649Z,96.20
2023-03-05T02:35:49.540Z,96.10
2023-03-05T02:38:19.196Z,95.90
2023-03-05T02:40:46.240Z,95.90
2023-03-05T02:43:14.931Z,95.90
2023-03-05T02:45:41.989Z,95.80
2023-03-05T02:49:14.286Z,95.70
2023-03-05T02:51:41.643Z,95.50
2023-03-05T02:54:09.066Z,95.40
2023-03-05T02:56:38.345Z,95.40
2023-03-05T02:59:05.626Z,95.90
2023-03-05T03:01:32.642Z,96.30
2023-03-05T03:04:00.093Z,96.50
2023-03-05T03:06:27.067Z,97.00
2023-03-05T03:08:54.046Z,97.40
2023-03-05T03:11:21.549Z,97.30
2023-03-05T03:13:48.654Z,97.20
2023-03-05T03:16:17.166Z,97.00
2023-03-05T03:18:47.496Z,96.90
2023-03-05T03:21:24.555Z,96.70
2023-03-05T03:23:51.924Z,96.40
2023-03-05T03:26:19.241Z,96.20
2023-03-05T03:28:46.283Z,96.10
2023-03-05T03:31:13.319Z,96.00
2023-03-05T03:33:40.468Z,96.00
2023-03-05T03:36:07.924Z,96.00
2023-03-05T03:38:35.068Z,96.10
2023-03-05T03:41:02.034Z,96.40
2023-03-05T03:43:29.028Z,96.30
2023-03-05T03:45:56.017Z,96.60
2023-03-05T03:48:23.087Z,96.80
2023-03-05T03:50:50.064Z,96.90
2023-03-05T03:53:17.582Z,97.20
2023-03-05T03:55:46.600Z,97.30
2023-03-05T03:58:13.676Z,97.30
2023-03-05T04:00:41.720Z,97.30
2023-03-05T04:03:09.383Z,97.30
2023-03-05T04:05:36.409Z,97.10
2023-03-05T04:08:03.586Z,97.10
2023-03-05T04:10:30.594Z,97.10
2023-03-05T04:12:57.561Z,96.80
2023-03-05T04:15:25.329Z,96.70
2023-03-05T04:17:52.396Z,96.40
2023-03-05T04:20:19.517Z,96.40
2023-03-05T04:22:46.480Z,96.40
2023-03-05T04:25:13.422Z,96.30
2023-03-05T04:27:40.531Z,96.10
2023-03-05T04:30:09.112Z,95.90
2023-03-05T04:32:36.338Z,95.90
2023-03-05T04:35:03.499Z,96.30
2023-03-05T04:37:30.466Z,96.50
2023-03-05T04:39:57.480Z,96.60
2023-03-05T04:42:24.649Z,96.50
2023-03-05T04:44:51.701Z,96.40
2023-03-05T04:47:19.688Z,96.50
2023-03-05T04:49:46.661Z,96.40
2023-03-05T04:52:14.526Z,96.30
2023-03-05T04:54:41.938Z,96.20
2023-03-05T04:57:08.872Z,96.20
2023-03-05T04:59:37.765Z,96.40
2023-03-05T05:02:05.594Z,96.60
2023-03-05T05:04:32.677Z,96.90
2023-03-05T05:06:59.908Z,97.20
2023-03-05T05:09:26.921Z,97.40
2023-03-05T05:11:53.986Z,97.50
2023-03-05T05:14:21.142Z,97.50
2023-03-05T05:16:48.212Z,97.80
2023-03-05T05:19:15.283Z,98.00
2023-03-05T05:21:43.168Z,98.20
2023-03-05T05:24:10.278Z,98.50
2023-03-05T05:26:37.265Z,98.70
2023-03-05T05:29:04.451Z,98.80
2023-03-05T05:31:31.514Z,99.00
2023-03-05T05:33:58.628Z,99.00
2023-03-05T05:36:25.571Z,99.20
2023-03-05T05:38:52.540Z,99.50
2023-03-05T05:41:20.127Z,99.60
2023-03-05T05:43:47.306Z,99.50
2023-03-05T05:46:17.500Z,99.40
2023-03-05T05:48:45.385Z,99.50
2023-03-05T05:51:15.121Z,99.40
2023-03-05T05:53:42.969Z,99.50
2023-03-05T05:56:11.342Z,99.80
2023-03-05T05:58:39.857Z,100.00
2023-03-05T06:01:19.153Z,100.00
2023-03-05T06:03:46.674Z,100.00
2023-03-05T06:06:16.247Z,100.00
2023-03-05T06:08:43.278Z,100.00
2023-03-05T06:11:10.912Z,100.00
2023-03-05T06:13:38.278Z,100.00
2023-03-05T06:16:08.471Z,100.00
2023-03-05T06:18:35.815Z,100.00
2023-03-05T06:21:08.033Z,100.00
2023-03-05T06:23:35.334Z,100.00
2023-03-05T06:26:04.538Z,100.00
2023-03-05T06:28:32.035Z,100.00
2023-03-05T06:31:02.812Z,100.00
2023-03-05T06:33:30.151Z,100.00
2023-03-05T06:35:57.160Z,100.00
2023-03-05T06:38:24.544Z,99.80
2023-03-05T06:40:51.880Z,99.90
2023-03-05T06:43:18.847Z,100.00
2023-03-05T06:45:46.027Z,100.00
2023-03-05T06:48:13.081Z,100.00
2023-03-05T06:50:40.053Z,100.00
2023-03-05T06:53:07.042Z,100.00
2023-03-05T06:56:05.087Z,100.00
2023-03-05T06:58:32.031Z,100.00
2023-03-05T07:00:59.014Z,100.00
2023-03-05T07:03:26.076Z,100.00
2023-03-05T07:05:53.017Z,100.00
2023-03-05T07:08:20.004Z,100.00
2023-03-05T07:10:46.938Z,100.00
2023-03-05T07:13:13.919Z,100.00
2023-03-05T07:15:41.308Z,100.00
2023-03-05T07:18:08.449Z,100.00
2023-03-05T07:20:38.294Z,100.00
2023-03-05T07:23:05.488Z,99.80
2023-03-05T07:25:32.905Z,99.30
2023-03-05T07:28:00.008Z,99.30
2023-03-05T07:30:26.980Z,99.30
2023-03-05T07:32:53.968Z,99.10
2023-03-05T07:35:21.041Z,98.80
2023-03-05T07:37:48.130Z,98.50
2023-03-05T07:40:15.112Z,98.30
2023-03-05T07:42:42.139Z,98.20
2023-03-05T07:45:15.936Z,97.70
2023-03-05T07:47:42.932Z,97.40
2023-03-05T07:50:10.450Z,97.30
2023-03-05T07:52:37.477Z,97.00
2023-03-05T07:55:04.772Z,96.80
2023-03-05T07:57:31.856Z,96.40
2023-03-05T07:59:58.813Z,96.50
2023-03-05T08:02:25.805Z,96.80
2023-03-05T08:04:52.808Z,97.10
2023-03-05T08:07:19.791Z,97.20
2023-03-05T08:09:46.757Z,97.20
2023-03-05T08:12:13.714Z,97.20
2023-03-05T08:14:40.716Z,97.10
2023-03-05T08:17:08.697Z,97.00
2023-03-05T08:19:35.707Z,96.90
2023-03-05T08:22:02.674Z,96.90
2023-03-05T08:24:29.951Z,96.90
2023-03-05T08:26:58.176Z,97.00
2023-03-05T08:29:25.992Z,96.90
2023-03-05T08:31:53.996Z,97.10
2023-03-05T08:34:21.627Z,97.20
2023-03-05T08:36:49.085Z,97.20
2023-03-05T08:39:17.255Z,97.40
2023-03-05T08:41:44.827Z,97.40
2023-03-05T08:44:12.691Z,97.30
2023-03-05T08:46:40.656Z,97.00
2023-03-05T08:49:08.084Z,96.50
2023-03-05T08:51:36.074Z,96.50
2023-03-05T08:54:06.983Z,96.50
2023-03-05T08:56:35.307Z,96.30
2023-03-05T08:59:03.770Z,96.10
2023-03-05T09:01:32.037Z,95.40
2023-03-05T09:04:00.037Z,95.80
2023-03-05T09:06:27.854Z,95.50
2023-03-05T09:08:55.219Z,95.30
2023-03-05T09:11:22.974Z,94.70
2023-03-05T09:13:49.922Z,95.00
2023-03-05T09:16:18.827Z,95.00
2023-03-05T09:18:45.994Z,95.00
2023-03-05T09:21:17.540Z,94.50
2023-03-05T09:23:47.336Z,94.30
2023-03-05T09:26:19.144Z,94.50
2023-03-05T09:28:46.581Z,94.30
2023-03-05T09:31:14.209Z,94.00
2023-03-05T09:33:41.396Z,93.60
2023-03-05T09:36:20.650Z,93.50
2023-03-05T09:38:47.742Z,93.20
2023-03-05T09:41:23.813Z,92.50
2023-03-05T09:44:06.195Z,93.00
2023-03-05T09:46:54.766Z,93.30
2023-03-05T09:49:49.189Z,93.40
2023-03-05T09:52:29.632Z,93.40
2023-03-05T09:54:57.886Z,92.60
2023-03-05T09:57:36.564Z,92.70
2023-03-05T10:00:10.575Z,92.80
2023-03-05T10:02:51.281Z,93.00
2023-03-05T10:05:45.599Z,91.80
2023-03-05T10:08:13.932Z,91.90
2023-03-05T10:10:44.389Z,92.20
2023-03-05T10:13:26.401Z,91.90
2023-03-05T10:16:29.904Z,91.70
2023-03-05T10:19:09.689Z,91.30
2023-03-05T10:21:42.739Z,91.50
2023-03-05T10:24:38.504Z,91.60
2023-03-05T10:27:19.294Z,91.60
2023-03-05T10:30:17.482Z,91.30
2023-03-05T10:33:19.788Z,91.10
2023-03-05T10:35:58.936Z,90.80
2023-03-05T10:38:53.411Z,91.00
2023-03-05T10:42:02.601Z,90.80
2023-03-05T10:44:39.764Z,90.80
2023-03-05T10:47:38.831Z,89.50
2023-03-05T10:50:18.129Z,88.90
2023-03-05T10:52:48.719Z,88.50
2023-03-05T10:55:19.189Z,87.40
2023-03-05T10:57:46.177Z,87.50
2023-03-05T11:00:25.013Z,87.60
2023-03-05T11:03:01.921Z,87.30
2023-03-05T11:05:44.273Z,87.80
2023-03-05T11:08:37.152Z,87.80
2023-03-05T11:11:31.404Z,87.60
2023-03-05T11:14:03.968Z,86.60
2023-03-05T11:16:45.455Z,87.00
2023-03-05T11:19:17.595Z,87.30
2023-03-05T11:21:45.895Z,87.50
2023-03-05T11:24:19.124Z,87.50
2023-03-05T11:26:52.078Z,86.80
2023-03-05T11:29:47.217Z,86.20
2023-03-05T11:32:20.522Z,86.00
2023-03-05T11:34:48.175Z,85.70
2023-03-05T11:37:27.585Z,85.00
2023-03-05T11:40:30.179Z,85.40
2023-03-05T11:43:51.381Z,85.30
2023-03-05T11:46:19.064Z,84.90
2023-03-05T11:48:46.895Z,84.50
2023-03-05T11:51:26.325Z,84.10
2023-03-05T11:53:59.442Z,85.00
2023-03-05T11:56:34.723Z,84.60
2023-03-05T11:59:16.717Z,83.80
2023-03-05T12:01:52.584Z,83.90
2023-03-05T12:04:21.025Z,83.80
2023-03-05T12:06:52.010Z,83.90
2023-03-05T12:09:43.578Z,83.50
2023-03-05T12:12:36.079Z,83.90
2023-03-05T12:15:12.199Z,84.10
2023-03-05T12:17:42.274Z,83.50
2023-03-05T12:20:39.693Z,83.70
2023-03-05T12:23:11.071Z,84.60
2023-03-05T12:25:57.657Z,84.00
2023-03-05T12:28:37.133Z,84.00
2023-03-05T12:31:23.901Z,82.70
2023-03-05T12:33:50.885Z,82.80
2023-03-05T12:36:17.895Z,82.90
2023-03-05T12:38:47.716Z,82.30
2023-03-05T12:41:24.534Z,81.10
2023-03-05T12:44:07.714Z,81.40
2023-03-05T12:46:38.392Z,80.40
2023-03-05T12:49:21.288Z,80.10
2023-03-05T12:51:50.663Z,80.00
2023-03-05T12:58:40.380Z,79.50
2023-03-05T13:01:16.359Z,79.80
2023-03-05T13:04:04.313Z,80.90
2023-03-05T13:06:34.279Z,81.30
2023-03-05T13:09:16.770Z,81.80
2023-03-05T13:11:51.042Z,81.10
2023-03-05T13:18:25.105Z,80.40
2023-03-05T13:21:07.656Z,81.20
2023-03-05T13:23:35.737Z,81.90
2023-03-05T13:26:15.551Z,81.20
2023-03-05T13:28:45.057Z,80.90
2023-03-05T13:31:18.656Z,81.30
2023-03-05T13:33:59.511Z,81.50
2023-03-05T13:36:27.959Z,81.00
2023-03-05T13:38:55.434Z,80.30
2023-03-05T13:41:25.362Z,78.90
2023-03-05T13:44:00.975Z,78.40
2023-03-05T13:46:29.819Z,78.70
2023-03-05T13:48:57.874Z,78.90
2023-03-05T13:51:44.538Z,78.40
2023-03-05T13:54:16.874Z,78.80
2023-03-05T13:57:07.582Z,78.60
2023-03-05T13:59:36.629Z,78.70
2023-03-05T14:02:20.808Z,78.80
2023-03-05T14:04:48.388Z,78.20
2023-03-05T14:07:41.646Z,77.90
2023-03-05T14:10:42.283Z,78.20
2023-03-05T14:13:17.952Z,78.80
2023-03-05T14:16:10.900Z,78.80
2023-03-05T14:18:38.781Z,79.80
2023-03-05T14:21:11.176Z,79.90
2023-03-05T14:23:57.978Z,79.70
2023-03-05T14:26:35.136Z,79.80
2023-03-05T14:29:15.265Z,79.70
2023-03-05T14:31:54.182Z,79.60
2023-03-05T14:34:23.083Z,80.00
2023-03-05T14:36:53.163Z,80.50
2023-03-05T14:40:23.984Z,80.70
2023-03-05T14:42:56.127Z,80.20
2023-03-05T14:45:26.023Z,80.40
2023-03-05T14:47:55.158Z,80.60
2023-03-05T14:50:36.299Z,81.00
2023-03-05T14:53:08.447Z,81.00
2023-03-05T14:55:38.426Z,80.90
2023-03-05T14:58:12.791Z,80.80
2023-03-05T15:00:40.076Z,80.70
2023-03-05T15:03:07.231Z,80.40
2023-03-05T15:05:35.218Z,81.00
2023-03-05T15:08:02.265Z,82.10
2023-03-05T15:10:29.322Z,82.80
2023-03-05T15:12:58.312Z,83.10
2023-03-05T15:15:25.414Z,83.40
2023-03-05T15:17:54.689Z,83.90
2023-03-05T15:20:27.302Z,84.80
2023-03-05T15:22:54.483Z,85.50
2023-03-05T15:25:46.585Z,86.00
2023-03-05T15:28:13.677Z,86.70
2023-03-05T15:30:46.368Z,87.00
2023-03-05T15:33:16.265Z,87.00
2023-03-05T15:35:43.844Z,87.20
2023-03-05T15:38:10.829Z,87.60
2023-03-05T15:40:37.915Z,87.80
2023-03-05T15:43:04.845Z,88.00
2023-03-05T15:45:31.898Z,87.90
2023-03-05T15:47:58.972Z,87.60
2023-03-05T15:50:26.071Z,87.20
2023-03-05T15:52:53.211Z,87.00
2023-03-05T15:55:20.661Z,87.10
2023-03-05T15:57:49.831Z,87.20
2023-03-05T16:00:22.050Z,87.00
2023-03-05T16:02:49.765Z,86.80
2023-03-05T16:05:16.951Z,86.90
2023-03-05T16:07:48.608Z,87.00
2023-03-05T16:10:20.508Z,86.80
2023-03-05T16:12:50.477Z,87.20
2023-03-05T16:15:19.927Z,86.80
2023-03-05T16:17:51.309Z,86.70
2023-03-05T16:20:18.586Z,86.60
2023-03-05T16:22:46.452Z,86.70
2023-03-05T16:25:13.567Z,86.60
2023-03-05T16:27:40.759Z,86.10
2023-03-05T16:30:09.285Z,86.10
2023-03-05T16:32:37.881Z,86.40
2023-03-05T16:35:05.423Z,86.50
2023-03-05T16:38:30.669Z,86.40
2023-03-05T16:41:07.914Z,86.20
2023-03-05T16:43:35.704Z,85.90
2023-03-05T16:46:02.751Z,85.60
2023-03-05T16:48:30.245Z,85.50
2023-03-05T16:52:19.426Z,84.90
2023-03-05T16:54:47.094Z,84.80
2023-03-05T16:57:14.737Z,85.10
2023-03-05T17:00:36.454Z,85.40
2023-03-05T17:03:04.110Z,85.50
2023-03-05T17:05:31.092Z,85.50
2023-03-05T17:07:58.100Z,85.60
2023-03-05T17:10:25.174Z,85.60
2023-03-05T17:12:52.864Z,86.00
2023-03-05T17:15:19.882Z,85.90
2023-03-05T17:17:46.864Z,86.00
2023-03-05T17:20:14.230Z,86.60
2023-03-05T17:22:41.334Z,86.50
2023-03-05T17:25:08.933Z,86.20
2023-03-05T17:27:37.223Z,86.80
2023-03-05T17:30:05.367Z,86.90
2023-03-05T17:32:32.445Z,86.80
2023-03-05T17:34:59.464Z,86.40
2023-03-05T17:37:26.734Z,86.00
2023-03-05T17:39:54.056Z,85.70
2023-03-05T17:42:21.262Z,85.50
2023-03-05T17:47:16.870Z,86.00
2023-03-05T17:49:43.858Z,86.00
2023-03-05T17:52:10.875Z,85.80
2023-03-05T17:54:37.835Z,85.40
2023-03-05T17:57:04.901Z,85.10
2023-03-05T17:59:34.915Z,84.70
2023-03-05T18:02:02.385Z,84.90
2023-03-05T18:04:29.495Z,84.80
2023-03-05T18:06:57.530Z,85.00
2023-03-05T18:09:25.005Z,85.10
2023-03-05T18:11:51.987Z,85.30
2023-03-05T18:14:18.926Z,85.00
2023-03-05T18:17:39.498Z,85.00
2023-03-05T18:20:07.446Z,85.40
2023-03-05T18:22:34.447Z,85.90
2023-03-05T18:25:52.566Z,86.30
2023-03-05T18:28:19.768Z,86.70
2023-03-05T18:30:48.942Z,87.10
2023-03-05T18:33:19.909Z,86.50
2023-03-05T18:35:52.172Z,87.00
2023-03-05T18:38:24.190Z,87.80
2023-03-05T18:40:52.831Z,88.10
2023-03-05T18:43:21.628Z,88.10
2023-03-05T18:45:53.632Z,88.50
2023-03-05T18:48:21.173Z,88.50
2023-03-05T18:50:53.077Z,88.40
2023-03-05T18:53:21.695Z,88.20
2023-03-05T18:55:50.942Z,88.10
2023-03-05T18:58:18.721Z,88.00
2023-03-05T19:00:47.177Z,87.80
2023-03-05T19:03:15.908Z,87.80
2023-03-05T19:05:43.523Z,87.60
2023-03-05T19:08:11.375Z,87.70
2023-03-05T19:10:38.566Z,87.90
2023-03-05T19:13:25.372Z,88.20
2023-03-05T19:15:52.453Z,88.30
2023-03-05T19:18:20.766Z,88.10
2023-03-05T19:20:56.771Z,87.90
2023-03-05T19:23:23.793Z,88.20
2023-03-05T19:25:50.741Z,88.40
2023-03-05T19:28:17.731Z,88.70
2023-03-05T19:30:47.560Z,88.80
2023-03-05T19:33:14.525Z,88.70
2023-03-05T19:35:42.185Z,88.50
2023-03-05T19:38:09.149Z,88.60
2023-03-05T19:40:36.117Z,88.80
2023-03-05T19:43:03.093Z,89.00
2023-03-05T19:45:33.765Z,89.10
2023-03-05T19:48:01.912Z,89.30
2023-03-05T19:50:28.862Z,89.40
2023-03-05T19:54:09.629Z,89.80
2023-03-05T19:56:41.337Z,89.90
2023-03-05T19:59:08.593Z,89.90
2023-03-05T20:01:36.104Z,90.30
2023-03-05T20:04:04.872Z,90.70
2023-03-05T20:06:33.576Z,91.00
2023-03-05T20:09:00.720Z,91.20
2023-03-05T20:11:28.349Z,91.30
2023-03-05T20:13:55.857Z,91.30
2023-03-05T20:16:25.237Z,91.40
2023-03-05T20:18:54.930Z,91.70
2023-03-05T20:21:30.747Z,91.50
2023-03-05T20:24:02.204Z,91.20
2023-03-05T20:26:29.343Z,90.90
2023-03-05T20:28:57.345Z,90.60
2023-03-05T20:31:26.732Z,90.40
2023-03-05T20:33:56.207Z,90.10
2023-03-05T20:36:24.444Z,89.90
2023-03-05T20:38:51.437Z,89.90
2023-03-05T20:41:20.897Z,89.60
2023-03-05T20:43:50.105Z,89.60
2023-03-05T20:46:24.551Z,89.50
2023-03-05T20:48:55.121Z,89.40
2023-03-05T20:51:29.456Z,89.60
2023-03-05T20:54:02.495Z,89.50
2023-03-05T20:56:32.470Z,89.30
2023-03-05T20:59:02.938Z,89.20
2023-03-05T21:01:33.084Z,89.10
2023-03-05T21:04:01.535Z,89.00
2023-03-05T21:06:30.504Z,89.00
2023-03-05T21:08:58.072Z,89.10
2023-03-05T21:11:25.634Z,89.10
2023-03-05T21:13:52.988Z,89.10
2023-03-05T21:16:22.966Z,89.10
2023-03-05T21:18:51.213Z,89.10
2023-03-05T21:21:18.828Z,89.00
2023-03-05T21:23:45.974Z,89.00
2023-03-05T21:26:13.571Z,89.10
2023-03-05T21:28:41.562Z,89.30
2023-03-05T21:31:11.148Z,89.30
2023-03-05T21:33:38.144Z,89.30
2023-03-05T21:36:05.349Z,89.30
2023-03-05T21:38:34.177Z,89.40
2023-03-05T21:41:02.450Z,89.40
2023-03-05T21:43:31.388Z,89.50
2023-03-05T21:46:01.229Z,89.40
2023-03-05T21:48:28.355Z,89.40
2023-03-05T21:55:16.733Z,89.70
2023-03-05T21:57:43.829Z,89.80
2023-03-05T22:00:17.240Z,90.00
2023-03-05T22:02:44.240Z,90.30
2023-03-05T22:05:13.463Z,90.50
2023-03-05T22:07:40.540Z,90.40
2023-03-05T22:10:18.928Z,90.50
2023-03-05T22:13:12.626Z,90.50
2023-03-05T22:15:45.740Z,90.70
2023-03-05T22:18:14.804Z,90.90
2023-03-05T22:20:42.492Z,91.10
2023-03-05T22:23:09.559Z,91.20
2023-03-05T22:25:36.656Z,91.30
2023-03-05T22:28:04.292Z,91.10
2023-03-05T22:30:32.243Z,91.20
2023-03-05T22:33:00.759Z,91.20
2023-03-05T22:35:28.453Z,91.30
2023-03-05T22:37:55.515Z,91.30
2023-03-05T22:40:22.823Z,91.30
2023-03-05T22:42:49.879Z,91.40
2023-03-05T22:45:18.244Z,91.50
2023-03-05T22:47:51.563Z,91.70
2023-03-05T22:50:18.845Z,91.60
2023-03-05T22:52:46.649Z,91.60
2023-03-05T22:55:15.377Z,91.60
2023-03-05T22:57:43.307Z,91.60
2023-03-05T23:00:17.614Z,91.60
2023-03-05T23:02:45.214Z,91.80
2023-03-05T23:05:12.473Z,91.80
2023-03-05T23:07:41.655Z,91.80
2023-03-05T23:10:14.851Z,91.70
2023-03-05T23:12:46.224Z,91.80
2023-03-05T23:15:15.856Z,91.80
2023-03-05T23:17:43.019Z,91.80
2023-03-05T23:20:12.045Z,91.90
2023-03-05T23:22:40.363Z,91.90
2023-03-05T23:25:07.659Z,92.10
2023-03-05T23:27:34.741Z,92.10
2023-03-05T23:30:17.003Z,92.10
2023-03-05T23:32:49.741Z,92.00
2023-03-05T23:35:23.053Z,92.00
2023-03-05T23:37:50.246Z,91.90
2023-03-05T23:40:39.855Z,91.80
2023-03-05T23:43:07.054Z,91.90
2023-03-05T23:45:34.036Z,91.90
2023-03-05T23:48:01.302Z,91.90
2023-03-05T23:50:31.412Z,92.30
2023-03-05T23:53:01.739Z,93.20
2023-03-05T23:55:40.609Z,94.10
2023-03-05T23:58:07.800Z,94.80
